Time;durP1;ratioP1;P1;durP2;ratioP2;P2;SDS_P1;SDS_P2;PMS_P1;PMS_P2;Temp;Humidity;BMP_temperature;BMP_pressure;BME280_temperature;BME280_humidity;BME280_pressure;Samples;Min_cycle;Max_cycle;Signal;HPM_P1;HPM_P2
2022/07/07 00:01:00;;;;;;;1.95;1.60;;;;;;;22.65;47.53;101914.97;5067024;28;20021;-60
2022/07/07 00:03:25;;;;;;;2.60;1.45;;;;;;;22.65;47.41;101909.53;5066851;28;20052;-60
2022/07/07 00:05:50;;;;;;;2.92;1.52;;;;;;;22.65;47.41;101901.41;5067111;28;20458;-60
2022/07/07 00:08:16;;;;;;;2.25;1.70;;;;;;;22.64;47.36;101903.28;5066857;28;20024;-60
2022/07/07 00:10:41;;;;;;;2.28;1.35;;;;;;;22.64;47.56;101899.69;5065624;28;20065;-60
2022/07/07 00:13:06;;;;;;;2.97;1.70;;;;;;;22.62;47.61;101897.16;5066352;28;20025;-60
2022/07/07 00:15:32;;;;;;;2.60;1.40;;;;;;;22.43;47.63;101867.72;5066307;28;20017;-60
2022/07/07 00:17:57;;;;;;;2.25;1.50;;;;;;;22.62;47.71;101899.88;5065475;28;20052;-60
2022/07/07 00:20:23;;;;;;;4.65;1.70;;;;;;;22.62;47.66;101896.31;5065354;28;20029;-60
2022/07/07 00:22:48;;;;;;;3.45;1.50;;;;;;;22.61;47.72;101902.78;5066826;28;20084;-60
2022/07/07 00:25:13;;;;;;;2.35;1.70;;;;;;;22.61;47.45;101900.06;5065509;28;20074;-60
2022/07/07 00:27:38;;;;;;;3.28;1.58;;;;;;;22.60;47.79;101898.34;5066556;28;20088;-60
2022/07/07 00:30:05;;;;;;;2.70;1.80;;;;;;;22.62;48.06;101893.63;5064510;28;20025;-60
2022/07/07 00:32:30;;;;;;;2.25;1.67;;;;;;;22.40;47.90;101857.19;5065302;28;20029;-60
2022/07/07 00:34:56;;;;;;;3.45;1.60;;;;;;;22.61;47.87;101881.94;5048643;28;20029;-60
2022/07/07 00:37:21;;;;;;;3.10;1.65;;;;;;;22.42;47.83;101841.59;5067720;28;20047;-60
2022/07/07 00:39:46;;;;;;;1.92;1.58;;;;;;;22.60;47.99;101873.94;5086517;28;20457;-60
2022/07/07 00:42:15;;;;;;;2.13;1.48;;;;;;;22.60;47.91;101882.94;5085599;28;20021;-60
2022/07/07 00:44:41;;;;;;;3.13;1.48;;;;;;;22.58;47.76;101879.53;5084459;28;20048;-60
2022/07/07 00:47:07;;;;;;;2.08;1.40;;;;;;;22.58;48.08;101871.41;5085145;28;20055;-60
2022/07/07 00:49:32;;;;;;;2.70;1.60;;;;;;;22.60;48.13;101872.09;5084722;28;20029;-60
2022/07/07 00:51:58;;;;;;;3.70;1.90;;;;;;;22.59;48.40;101870.38;5086239;28;20027;-60
2022/07/07 00:54:23;;;;;;;2.63;1.80;;;;;;;22.59;48.09;101869.53;5084586;28;20028;-60
2022/07/07 00:56:48;;;;;;;2.72;1.55;;;;;;;22.59;48.11;101870.38;5084737;28;20032;-60
2022/07/07 00:59:14;;;;;;;2.08;1.60;;;;;;;22.39;48.41;101836.53;5084262;28;20029;-60
2022/07/07 01:01:41;;;;;;;4.75;1.63;;;;;;;22.59;48.56;101867.69;5077502;28;20080;-60
2022/07/07 01:04:12;;;;;;;3.05;1.77;;;;;;;22.59;48.55;101858.72;5074345;28;20079;-60
2022/07/07 01:06:39;;;;;;;2.78;1.80;;;;;;;22.58;48.57;101863.28;5072746;28;20025;-61
2022/07/07 01:09:05;;;;;;;3.33;1.98;;;;;;;22.35;48.57;101822.47;5084769;28;20078;-60
2022/07/07 01:11:52;;;;;;;1.83;1.50;;;;;;;22.56;48.53;101854.50;5072154;28;20034;-60
2022/07/07 01:14:18;;;;;;;2.97;1.88;;;;;;;22.54;48.72;101842.94;5065312;28;20057;-60
2022/07/07 01:16:43;;;;;;;2.92;1.70;;;;;;;22.24;48.64;101784.03;5065778;28;20037;-61
2022/07/07 01:19:08;;;;;;;3.38;1.90;;;;;;;22.57;48.74;101836.38;5065507;28;20025;-60
2022/07/07 01:21:43;;;;;;;1.88;1.58;;;;;;;22.57;48.75;101839.91;5065625;28;20056;-60
2022/07/07 01:24:08;;;;;;;3.60;1.80;;;;;;;22.36;48.93;101801.66;5063963;28;20013;-60
2022/07/07 01:26:33;;;;;;;2.47;1.70;;;;;;;22.55;48.96;101839.22;5064149;28;20088;-60
2022/07/07 01:28:59;;;;;;;1.88;1.48;;;;;;;22.54;49.02;101834.81;5063930;28;20029;-60
2022/07/07 01:31:24;;;;;;;3.28;1.75;;;;;;;22.34;48.77;101790.13;5065366;28;20051;-61
2022/07/07 01:33:49;;;;;;;2.08;1.55;;;;;;;22.55;49.20;101822.13;5065292;28;20025;-60
2022/07/07 01:36:15;;;;;;;1.70;1.50;;;;;;;22.55;49.15;101819.41;5071720;28;20050;-60
2022/07/07 01:38:40;;;;;;;3.08;1.63;;;;;;;22.52;49.36;101815.19;5085304;28;20505;-60
2022/07/07 01:41:05;;;;;;;3.25;1.85;;;;;;;22.55;49.05;101819.41;5084200;28;20120;-60
2022/07/07 01:43:30;;;;;;;2.80;1.48;;;;;;;22.35;49.34;101784.56;5084362;28;20059;-60
2022/07/07 01:45:56;;;;;;;2.70;1.70;;;;;;;22.33;49.09;101783.84;5085024;28;20052;-60
2022/07/07 01:48:22;;;;;;;2.30;1.60;;;;;;;22.27;49.31;101768.28;5083974;28;20024;-60
2022/07/07 01:50:48;;;;;;;3.92;1.80;;;;;;;22.54;49.30;101809.59;5083884;28;20031;-60
2022/07/07 01:53:13;;;;;;;3.00;1.77;;;;;;;22.53;49.72;101803.31;5084006;28;20107;-60
2022/07/07 01:55:38;;;;;;;2.78;1.65;;;;;;;22.53;49.36;101808.75;5084202;28;20020;-60
2022/07/07 01:58:04;;;;;;;2.95;1.65;;;;;;;22.29;49.87;101760.81;5084957;28;20028;-61
2022/07/07 02:00:29;;;;;;;2.78;1.50;;;;;;;22.27;49.62;101760.16;5083501;28;20024;-60
2022/07/07 02:02:54;;;;;;;3.10;1.85;;;;;;;22.52;49.87;101804.34;5085021;28;20032;-60
2022/07/07 02:05:19;;;;;;;2.60;1.58;;;;;;;22.46;49.85;101792.31;5084067;28;20047;-61
2022/07/07 02:07:47;;;;;;;2.25;1.50;;;;;;;22.51;49.63;101804.50;5083918;28;20025;-60
2022/07/07 02:10:12;;;;;;;3.35;2.25;;;;;;;22.49;49.74;101807.41;5080310;28;20051;-60
2022/07/07 02:12:37;;;;;;;3.83;1.45;;;;;;;22.51;49.90;101807.22;5048426;28;20084;-60
2022/07/07 02:15:03;;;;;;;2.88;1.60;;;;;;;22.43;50.10;101808.09;5067569;28;20096;-60
2022/07/07 02:17:28;;;;;;;2.92;2.10;;;;;;;22.30;49.78;101778.81;5069218;28;20094;-60
2022/07/07 02:19:54;;;;;;;2.47;1.67;;;;;;;22.49;50.09;101814.69;5068952;28;20040;-60
2022/07/07 02:22:19;;;;;;;2.05;1.60;;;;;;;22.44;50.05;101807.06;5069019;28;20051;-60
2022/07/07 02:24:46;;;;;;;2.60;1.30;;;;;;;22.46;50.29;101816.69;5067424;28;20029;-60
2022/07/07 02:27:13;;;;;;;3.13;1.48;;;;;;;22.46;50.46;101823.97;5067691;28;20029;-60
2022/07/07 02:29:38;;;;;;;1.85;1.17;;;;;;;22.46;50.32;101818.56;5050628;28;20484;-60
2022/07/07 02:32:04;;;;;;;3.20;1.20;;;;;;;22.25;50.32;101775.72;5067780;28;20036;-60
2022/07/07 02:34:29;;;;;;;1.77;1.02;;;;;;;22.44;50.54;101809.78;5067370;28;20017;-60
2022/07/07 02:36:54;;;;;;;1.55;1.20;;;;;;;22.43;50.42;101808.09;5067408;28;20555;-60
2022/07/07 02:39:19;;;;;;;2.67;0.95;;;;;;;22.09;50.48;101757.59;5068680;28;20028;-60
2022/07/07 02:41:45;;;;;;;1.83;0.85;;;;;;;22.35;50.53;101794.53;5067007;28;20079;-60
2022/07/07 02:44:10;;;;;;;1.15;0.73;;;;;;;22.41;50.65;101805.53;5067963;28;20075;-60
2022/07/07 02:46:35;;;;;;;3.55;1.20;;;;;;;22.41;50.47;101804.69;5067526;28;20093;-60
2022/07/07 02:49:01;;;;;;;1.40;0.85;;;;;;;22.41;50.57;101799.28;5068248;28;20017;-60
2022/07/07 02:51:26;;;;;;;1.77;0.85;;;;;;;22.35;50.48;101787.25;5068443;28;20466;-60
2022/07/07 02:53:52;;;;;;;1.60;0.75;;;;;;;22.40;50.54;101784.03;5068256;28;20036;-60
2022/07/07 02:56:18;;;;;;;0.80;0.77;;;;;;;22.39;50.55;101794.03;5067336;28;20480;-59
2022/07/07 02:58:43;;;;;;;1.02;0.75;;;;;;;22.41;50.43;101785.72;5067979;28;20089;-60
2022/07/07 03:01:08;;;;;;;3.88;1.08;;;;;;;22.41;50.38;101783.00;5068421;28;20021;-60
2022/07/07 03:03:33;;;;;;;1.48;0.80;;;;;;;22.40;50.53;101784.03;5068020;28;20466;-60
2022/07/07 03:05:59;;;;;;;1.13;0.63;;;;;;;22.40;50.48;101775.91;5068315;28;20025;-60
2022/07/07 03:08:24;;;;;;;1.20;0.63;;;;;;;22.39;50.68;101776.94;5067890;28;20029;-60
2022/07/07 03:10:49;;;;;;;1.98;1.33;;;;;;;22.18;50.55;101744.94;5076714;28;20025;-60
2022/07/07 03:13:15;;;;;;;2.17;0.90;;;;;;;22.16;50.70;101745.09;5087567;28;20024;-60
2022/07/07 03:15:40;;;;;;;1.05;0.82;;;;;;;22.12;50.39;101738.31;5087839;28;20064;-60
2022/07/07 03:18:05;;;;;;;1.00;0.60;;;;;;;22.29;50.44;101752.69;5086801;28;20029;-60
2022/07/07 03:20:31;;;;;;;3.13;1.02;;;;;;;22.19;50.51;101731.22;5088078;28;20359;-60
2022/07/07 03:22:56;;;;;;;1.48;0.88;;;;;;;22.36;50.68;101758.28;5069580;28;20063;-61
2022/07/07 03:25:21;;;;;;;0.93;0.70;;;;;;;22.12;50.53;101721.19;5085800;28;20029;-60
2022/07/07 03:27:47;;;;;;;1.40;0.80;;;;;;;22.35;50.58;101754.75;5086392;28;20028;-60
2022/07/07 03:30:12;;;;;;;0.65;0.60;;;;;;;22.35;50.58;101764.75;5069326;28;20021;-61
2022/07/07 03:32:38;;;;;;;1.77;1.33;;;;;;;22.35;50.89;101753.91;5086307;28;20470;-61
2022/07/07 03:35:03;;;;;;;1.35;0.85;;;;;;;22.34;50.85;101763.03;5086446;28;20078;-61
2022/07/07 03:37:29;;;;;;;1.92;0.80;;;;;;;22.29;50.77;101752.69;5087402;28;20021;-61
2022/07/07 03:39:54;;;;;;;1.10;0.80;;;;;;;22.32;50.94;101756.94;5087874;28;20084;-61
2022/07/07 03:42:20;;;;;;;1.13;0.60;;;;;;;22.34;50.51;101763.88;5087220;28;20024;-61
2022/07/07 03:44:45;;;;;;;1.95;0.90;;;;;;;22.34;50.97;101754.91;5086552;28;20410;-61
2022/07/07 03:47:11;;;;;;;1.00;0.75;;;;;;;22.04;50.76;101703.09;5087620;28;20028;-61
2022/07/07 03:49:37;;;;;;;0.98;0.80;;;;;;;22.32;50.74;101744.25;5069216;28;20481;-61
2022/07/07 03:52:02;;;;;;;3.17;0.93;;;;;;;22.33;50.93;101745.09;5087501;28;20029;-61
2022/07/07 03:54:27;;;;;;;1.27;0.80;;;;;;;22.32;50.79;101746.09;5085721;28;20032;-61
2022/07/07 03:56:53;;;;;;;1.33;0.90;;;;;;;22.32;50.77;101743.41;5086134;28;20385;-61
2022/07/07 03:59:18;;;;;;;1.52;0.82;;;;;;;22.32;50.87;101749.66;5085512;28;20096;-61
2022/07/07 04:01:45;;;;;;;2.00;0.95;;;;;;;22.30;50.66;101751.72;5087269;28;20352;-61
2022/07/07 04:04:12;;;;;;;1.35;0.95;;;;;;;22.30;50.93;101761.66;5087042;28;20051;-61
2022/07/07 04:06:37;;;;;;;1.58;0.70;;;;;;;22.07;51.08;101724.41;5086070;28;20029;-61
2022/07/07 04:09:02;;;;;;;1.42;0.90;;;;;;;22.07;51.05;101731.69;5085988;28;20023;-61
2022/07/07 04:11:27;;;;;;;3.03;1.20;;;;;;;22.08;51.21;101733.38;5071371;28;20032;-61
2022/07/07 04:13:53;;;;;;;1.15;0.70;;;;;;;22.28;51.31;101769.13;5066213;28;20036;-61
2022/07/07 04:16:18;;;;;;;0.93;0.80;;;;;;;22.27;51.09;101768.28;5066879;28;20029;-61
2022/07/07 04:18:43;;;;;;;2.78;1.00;;;;;;;22.27;51.02;101762.03;5066669;28;20127;-61
2022/07/07 04:21:08;;;;;;;1.52;0.70;;;;;;;22.26;51.06;101763.03;5066880;28;20044;-61
2022/07/07 04:23:34;;;;;;;1.60;0.68;;;;;;;22.25;51.09;101762.19;5066439;28;20025;-61
2022/07/07 04:25:59;;;;;;;1.05;0.75;;;;;;;22.25;50.91;101759.47;5066851;28;20074;-61
2022/07/07 04:28:25;;;;;;;1.20;0.60;;;;;;;22.21;51.02;101750.84;5066337;28;20086;-61
2022/07/07 04:30:50;;;;;;;1.25;0.70;;;;;;;22.24;51.14;101757.78;5066323;28;20033;-61
2022/07/07 04:33:15;;;;;;;2.53;0.90;;;;;;;22.23;51.15;101766.94;5065288;28;20021;-61
2022/07/07 04:35:40;;;;;;;1.65;1.05;;;;;;;22.24;51.36;101765.91;5066269;28;20029;-61
2022/07/07 04:38:06;;;;;;;1.98;0.85;;;;;;;22.23;51.22;101766.09;5066218;28;20088;-61
2022/07/07 04:40:31;;;;;;;1.48;0.70;;;;;;;22.24;51.14;101771.34;5066536;28;20488;-61
2022/07/07 04:42:56;;;;;;;2.13;0.88;;;;;;;22.01;51.11;101735.94;5064357;28;20025;-61
2022/07/07 04:45:21;;;;;;;0.88;0.55;;;;;;;22.24;50.91;101782.16;5065876;28;20029;-61
2022/07/07 04:47:47;;;;;;;1.98;1.05;;;;;;;22.24;51.33;101778.63;5066426;28;20040;-61
2022/07/07 04:50:13;;;;;;;2.08;1.05;;;;;;;22.23;51.10;101790.47;5066069;28;20092;-61
2022/07/07 04:52:39;;;;;;;1.85;0.68;;;;;;;22.22;50.96;101797.75;5065873;28;20098;-61
2022/07/07 04:55:05;;;;;;;2.28;1.35;;;;;;;22.23;51.29;101809.44;5066172;28;20125;-61
2022/07/07 04:57:31;;;;;;;4.90;1.45;;;;;;;22.21;51.23;101807.72;5064852;28;20029;-61
2022/07/07 04:59:56;;;;;;;2.70;0.98;;;;;;;22.22;51.45;101811.31;5065747;28;20047;-61
2022/07/07 05:02:21;;;;;;;2.47;0.70;;;;;;;22.00;51.24;101779.41;5066107;28;20486;-61
2022/07/07 05:04:48;;;;;;;1.38;0.60;;;;;;;22.21;51.16;101823.97;5064021;28;20028;-61
2022/07/07 05:07:14;;;;;;;2.25;0.80;;;;;;;22.21;51.35;101833.97;5050892;28;20056;-61
2022/07/07 05:09:39;;;;;;;2.13;0.98;;;;;;;22.21;51.08;101839.38;5061710;28;20601;-61
2022/07/07 05:12:05;;;;;;;2.03;0.90;;;;;;;22.19;51.42;101834.16;5085199;28;20032;-61
2022/07/07 05:14:30;;;;;;;2.70;0.98;;;;;;;22.19;51.48;101842.28;5085228;28;20543;-61
2022/07/07 05:16:56;;;;;;;4.35;0.70;;;;;;;22.19;51.28;101844.97;5085713;28;20060;-61
2022/07/07 05:19:22;;;;;;;2.55;1.08;;;;;;;22.18;51.32;101853.28;5085735;28;20025;-61
2022/07/07 05:21:48;;;;;;;1.77;0.73;;;;;;;22.17;51.29;101847.03;5084424;28;20466;-61
2022/07/07 05:24:13;;;;;;;2.67;0.80;;;;;;;22.16;51.59;101850.72;5084086;28;20099;-61
2022/07/07 05:26:38;;;;;;;2.03;0.80;;;;;;;22.15;51.44;101849.03;5085336;28;20039;-61
2022/07/07 05:29:04;;;;;;;2.05;0.90;;;;;;;22.15;51.51;101854.47;5083744;28;20037;-61
2022/07/07 05:31:29;;;;;;;2.55;0.60;;;;;;;22.15;51.39;101859.03;5085290;28;20028;-61
2022/07/07 05:33:54;;;;;;;2.53;0.80;;;;;;;22.15;51.37;101854.47;5083892;28;20028;-61
2022/07/07 05:36:19;;;;;;;2.33;0.68;;;;;;;22.15;51.20;101868.00;5084337;28;20046;-61
2022/07/07 05:38:45;;;;;;;1.33;0.60;;;;;;;22.16;51.41;101868.84;5085306;28;20032;-61
2022/07/07 05:41:11;;;;;;;1.83;0.60;;;;;;;21.96;51.37;101833.06;5084265;28;20524;-61
2022/07/07 05:43:36;;;;;;;1.02;0.55;;;;;;;21.92;51.43;101827.16;5066311;28;20082;-61
2022/07/07 05:46:01;;;;;;;1.73;0.50;;;;;;;22.17;51.15;101873.25;5085285;28;20385;-61
2022/07/07 05:48:27;;;;;;;2.78;1.00;;;;;;;22.17;51.38;101870.53;5084445;28;20028;-61
2022/07/07 05:50:52;;;;;;;2.83;0.90;;;;;;;22.17;51.24;101873.25;5067273;28;20052;-61
2022/07/07 05:53:17;;;;;;;3.85;1.05;;;;;;;22.17;51.61;101882.25;5084635;28;20055;-61
2022/07/07 05:55:42;;;;;;;2.67;0.93;;;;;;;21.95;51.12;101844.91;5085223;28;20028;-61
2022/07/07 05:58:08;;;;;;;2.58;0.88;;;;;;;22.12;51.21;101883.69;5085099;28;20024;-60
2022/07/07 06:00:33;;;;;;;2.80;0.98;;;;;;;22.16;51.25;101894.06;5084719;28;20026;-61
2022/07/07 06:02:58;;;;;;;2.80;0.85;;;;;;;22.15;51.23;101899.66;5084988;28;20036;-61
2022/07/07 06:05:23;;;;;;;4.13;1.00;;;;;;;22.13;51.27;101910.66;5084992;28;20036;-61
2022/07/07 06:07:49;;;;;;;3.28;1.00;;;;;;;21.91;51.24;101901.25;5084861;28;20029;-61
2022/07/07 06:10:14;;;;;;;3.78;0.85;;;;;;;22.11;51.27;101933.47;5078589;28;20085;-61
2022/07/07 06:12:40;;;;;;;2.50;0.90;;;;;;;22.10;51.39;101920.94;5063024;28;20031;-61
2022/07/07 06:15:06;;;;;;;3.05;1.20;;;;;;;21.89;51.41;101889.75;5064446;28;20056;-61
2022/07/07 06:17:32;;;;;;;3.28;1.00;;;;;;;22.08;51.17;101912.13;5063443;28;20029;-61
2022/07/07 06:19:57;;;;;;;2.47;0.80;;;;;;;22.08;51.20;101929.22;5065066;28;20036;-60
2022/07/07 06:22:23;;;;;;;2.83;0.93;;;;;;;22.06;50.98;101931.25;5064763;28;20033;-60
2022/07/07 06:24:48;;;;;;;1.38;0.60;;;;;;;21.86;51.23;101900.91;5063419;28;20056;-60
2022/07/07 06:27:13;;;;;;;1.83;0.80;;;;;;;22.01;51.47;101920.09;5064917;28;20033;-60
2022/07/07 06:29:38;;;;;;;2.55;0.90;;;;;;;22.10;51.22;101929.91;5064068;28;20118;-61
2022/07/07 06:32:04;;;;;;;3.30;0.85;;;;;;;21.89;51.09;101905.16;5063722;28;20032;-61
2022/07/07 06:34:29;;;;;;;3.88;1.00;;;;;;;21.92;50.73;101897.53;5064635;28;20025;-60
2022/07/07 06:36:55;;;;;;;1.33;0.63;;;;;;;22.12;50.97;101929.75;5063500;28;20032;-60
2022/07/07 06:39:20;;;;;;;5.43;0.85;;;;;;;22.14;51.03;101946.72;5064858;28;20025;-60
2022/07/07 06:41:45;;;;;;;2.30;0.77;;;;;;;22.15;51.12;101943.84;5046499;28;20067;-60
2022/07/07 06:44:11;;;;;;;3.15;0.90;;;;;;;21.90;51.22;101901.41;5062625;28;20110;-60
2022/07/07 06:46:37;;;;;;;2.53;0.68;;;;;;;22.15;51.14;101951.13;5063402;28;20021;-59
2022/07/07 06:49:03;;;;;;;1.80;0.47;;;;;;;22.15;50.99;101954.69;5046485;28;20032;-60
2022/07/07 06:51:29;;;;;;;2.95;0.95;;;;;;;22.13;51.30;101955.84;5064505;28;20025;-60
2022/07/07 06:53:54;;;;;;;2.63;0.70;;;;;;;21.96;51.08;101919.69;5063013;28;20028;-61
2022/07/07 06:56:19;;;;;;;1.45;0.77;;;;;;;21.96;51.12;101922.41;5064675;28;20028;-61
2022/07/07 06:58:45;;;;;;;2.55;1.10;;;;;;;22.19;51.33;101957.91;5064727;28;20032;-61
2022/07/07 07:01:10;;;;;;;3.22;1.05;;;;;;;22.20;50.96;101957.72;5066365;28;20462;-60
2022/07/07 07:03:35;;;;;;;1.92;0.50;;;;;;;22.21;51.41;101953.16;5066810;28;20028;-60
2022/07/07 07:06:01;;;;;;;4.10;0.95;;;;;;;22.24;51.36;101954.69;5068236;28;20029;-60
2022/07/07 07:08:26;;;;;;;3.15;1.05;;;;;;;22.26;51.53;101955.38;5066466;28;20032;-60
2022/07/07 07:10:51;;;;;;;2.13;0.65;;;;;;;22.25;51.64;101965.38;5078161;28;20108;-60
2022/07/07 07:13:16;;;;;;;1.92;0.77;;;;;;;22.04;51.66;101929.72;5087184;28;20028;-60
2022/07/07 07:15:42;;;;;;;1.58;0.57;;;;;;;22.06;51.27;101933.97;5069781;28;20394;-60
2022/07/07 07:18:07;;;;;;;3.22;0.95;;;;;;;22.26;51.28;101980.63;5086748;28;20025;-60
2022/07/07 07:20:32;;;;;;;3.38;0.70;;;;;;;22.28;51.74;101981.28;5086768;28;20025;-60
2022/07/07 07:22:58;;;;;;;3.55;0.77;;;;;;;22.28;51.70;101980.44;5086344;28;20021;-60
2022/07/07 07:25:23;;;;;;;4.20;0.70;;;;;;;22.28;51.43;101980.44;5086784;28;20055;-60
2022/07/07 07:27:49;;;;;;;2.38;0.75;;;;;;;22.28;51.32;101992.13;5087780;28;20028;-60
2022/07/07 07:30:14;;;;;;;1.70;0.50;;;;;;;22.28;51.34;101991.28;5087410;28;20044;-60
2022/07/07 07:32:40;;;;;;;1.98;0.80;;;;;;;22.29;51.61;101998.41;5087699;28;20036;-60
2022/07/07 07:35:06;;;;;;;1.63;0.65;;;;;;;22.26;51.65;102005.00;5086171;28;20031;-60
2022/07/07 07:37:31;;;;;;;1.52;0.60;;;;;;;22.25;51.29;101999.72;5087512;28;20029;-60
2022/07/07 07:39:56;;;;;;;1.23;0.60;;;;;;;22.08;51.56;101956.31;5087437;28;20028;-60
2022/07/07 07:42:21;;;;;;;1.80;0.63;;;;;;;22.26;51.54;101990.59;5086126;28;20055;-60
2022/07/07 07:47:31;;;;;;;1.13;0.50;;;;;;;22.10;51.19;101959.72;5087538;28;20113;-60
2022/07/07 07:49:56;;;;;;;1.17;0.70;;;;;;;22.29;51.44;101998.41;5085918;28;20112;-60
2022/07/07 07:52:21;;;;;;;1.75;0.55;;;;;;;22.29;51.39;102009.22;5087483;28;20024;-60
2022/07/07 07:54:47;;;;;;;2.88;0.60;;;;;;;22.29;51.38;102011.94;5086975;28;20027;-60
2022/07/07 07:57:12;;;;;;;1.20;0.50;;;;;;;22.10;51.23;101975.13;5086306;28;20025;-60
2022/07/07 07:59:37;;;;;;;1.23;0.60;;;;;;;22.31;51.29;102021.63;5086387;28;20538;-60
2022/07/07 08:02:03;;;;;;;2.53;0.60;;;;;;;22.32;51.35;102012.47;5085992;28;20028;-60
2022/07/07 08:04:28;;;;;;;1.67;0.40;;;;;;;22.33;51.18;102008.75;5086731;28;20020;-60
2022/07/07 08:06:53;;;;;;;1.05;0.40;;;;;;;22.14;51.21;101974.66;5087427;28;20054;-60
2022/07/07 08:09:18;;;;;;;2.22;0.50;;;;;;;22.36;51.12;102013.00;5085538;28;20389;-60
2022/07/07 08:11:44;;;;;;;1.08;0.50;;;;;;;22.33;51.16;102033.13;5068584;28;20241;-60
2022/07/07 08:14:09;;;;;;;1.48;0.63;;;;;;;22.15;51.23;101989.03;5065083;28;20021;-60
2022/07/07 08:16:35;;;;;;;2.67;0.52;;;;;;;22.13;51.77;101996.47;5066855;28;20033;-60
2022/07/07 08:19:00;;;;;;;1.40;0.50;;;;;;;22.33;51.34;102038.53;5065214;28;20055;-60
2022/07/07 08:21:25;;;;;;;1.20;0.50;;;;;;;22.32;51.54;102042.28;5066726;28;20029;-60
2022/07/07 08:23:50;;;;;;;1.75;0.65;;;;;;;22.13;51.42;102007.31;5066506;28;20060;-60
2022/07/07 08:26:16;;;;;;;1.10;0.40;;;;;;;22.13;51.22;101999.19;5049025;28;20025;-60
2022/07/07 08:28:41;;;;;;;1.50;0.50;;;;;;;22.33;51.62;102043.97;5065133;28;20025;-60
2022/07/07 08:31:07;;;;;;;2.70;0.70;;;;;;;22.35;51.71;102044.66;5064815;28;20029;-60
2022/07/07 08:33:33;;;;;;;0.65;0.40;;;;;;;22.35;51.57;102036.53;5066370;28;20031;-60
2022/07/07 08:35:58;;;;;;;1.55;0.45;;;;;;;22.19;51.66;102001.25;5066690;28;20458;-60
2022/07/07 08:38:23;;;;;;;1.20;0.45;;;;;;;22.40;51.42;102045.00;5066264;28;20036;-60
2022/07/07 08:40:49;;;;;;;3.45;0.60;;;;;;;22.42;51.67;102050.25;5065160;28;20035;-60
2022/07/07 08:43:15;;;;;;;1.45;0.40;;;;;;;22.45;51.30;102042.66;5064397;28;20065;-60
2022/07/07 08:45:40;;;;;;;0.90;0.43;;;;;;;22.46;51.44;102057.88;5064679;28;20028;-61
2022/07/07 08:48:05;;;;;;;4.45;0.60;;;;;;;22.46;51.83;102055.19;5065123;28;20091;-61
2022/07/07 08:50:31;;;;;;;1.05;0.50;;;;;;;22.49;51.67;102061.31;5065837;28;20160;-61
2022/07/07 08:52:57;;;;;;;2.60;0.57;;;;;;;22.48;51.67;102065.88;5064848;28;20025;-61
2022/07/07 08:55:23;;;;;;;1.52;0.50;;;;;;;22.48;51.74;102060.47;5065953;28;20029;-61
2022/07/07 08:57:52;;;;;;;2.28;0.70;;;;;;;22.48;51.67;102068.59;5066086;28;20032;-60
2022/07/07 09:00:18;;;;;;;1.20;0.45;;;;;;;22.48;51.34;102074.00;5064068;28;20017;-61
2022/07/07 09:02:44;;;;;;;2.33;0.50;;;;;;;22.48;51.32;102076.72;5064826;28;20036;-60
2022/07/07 09:05:10;;;;;;;2.38;0.73;;;;;;;22.48;51.51;102076.72;5064602;28;20012;-61
2022/07/07 09:07:46;;;;;;;1.70;0.93;;;;;;;22.49;51.44;102077.56;5066011;28;20056;-60
2022/07/07 09:10:12;;;;;;;0.75;0.40;;;;;;;22.49;51.47;102074.84;5069453;28;20023;-61
2022/07/07 09:12:37;;;;;;;1.30;0.50;;;;;;;22.49;51.52;102081.13;5084175;28;20033;-61
2022/07/07 09:15:06;;;;;;;1.10;0.40;;;;;;;22.49;51.42;102083.81;5085106;28;20028;-61
2022/07/07 09:17:32;;;;;;;1.20;0.50;;;;;;;22.50;51.50;102079.25;5085698;28;20057;-61
2022/07/07 09:20:17;;;;;;;2.13;0.63;;;;;;;22.50;51.70;102092.81;5085465;28;20032;-61
2022/07/07 09:22:50;;;;;;;2.10;0.60;;;;;;;22.48;51.83;102101.09;5083541;28;20032;-61
2022/07/07 09:25:18;;;;;;;1.55;0.52;;;;;;;22.48;51.58;102101.09;5067574;28;20455;-61
2022/07/07 09:28:00;;;;;;;1.27;0.50;;;;;;;22.49;51.63;102115.50;5084267;28;20032;-61
2022/07/07 09:30:33;;;;;;;3.30;1.40;;;;;;;22.45;51.50;102115.81;5084764;28;20084;-61
2022/07/07 09:33:02;;;;;;;2.30;0.57;;;;;;;22.44;51.49;102122.25;5085462;28;20039;-61
2022/07/07 09:38:15;;;;;;;2.05;0.60;;;;;;;22.42;51.36;102129.69;5084284;28;20547;-61
2022/07/07 09:41:00;;;;;;;1.35;0.47;;;;;;;22.43;51.33;102136.00;5084195;28;20020;-61
2022/07/07 09:43:36;;;;;;;1.52;0.52;;;;;;;22.43;51.39;102133.28;5083141;28;20084;-61
2022/07/07 09:46:06;;;;;;;1.45;0.40;;;;;;;22.44;50.84;102137.69;5084959;28;20024;-61
2022/07/07 09:48:33;;;;;;;2.78;0.60;;;;;;;22.45;50.94;102150.22;5083887;28;20042;-61
2022/07/07 09:51:21;;;;;;;0.88;0.40;;;;;;;22.48;50.97;102144.47;5083995;28;20047;-61
2022/07/07 09:53:53;;;;;;;2.33;0.75;;;;;;;22.49;50.87;102142.59;5084925;28;20582;-60
2022/07/07 09:56:36;;;;;;;1.15;0.60;;;;;;;22.51;51.12;102154.13;5085643;28;20020;-60
2022/07/07 09:59:03;;;;;;;1.95;0.60;;;;;;;22.30;51.17;102112.03;5085215;28;20047;-61
2022/07/07 10:01:31;;;;;;;2.05;0.70;;;;;;;22.50;50.92;102153.28;5066887;28;20016;-60
2022/07/07 10:04:01;;;;;;;3.30;0.40;;;;;;;22.49;51.24;102167.00;5083605;28;20031;-60
2022/07/07 10:06:29;;;;;;;1.80;0.70;;;;;;;22.46;51.01;102160.88;5083726;28;20028;-60
2022/07/07 10:08:57;;;;;;;1.17;0.65;;;;;;;22.46;50.95;102162.75;5083753;28;20021;-60
2022/07/07 10:11:40;;;;;;;2.28;0.68;;;;;;;22.46;51.33;102169.00;5070188;28;20018;-60
2022/07/07 10:14:16;;;;;;;1.90;0.55;;;;;;;22.45;51.59;102175.44;5063268;28;20606;-61
2022/07/07 10:16:46;;;;;;;1.40;0.50;;;;;;;22.23;51.60;102146.19;5063674;28;20036;-62
2022/07/07 10:19:14;;;;;;;0.93;0.40;;;;;;;22.46;51.52;102170.88;5064974;28;20029;-61
2022/07/07 10:21:41;;;;;;;1.55;0.45;;;;;;;22.48;51.70;102179.69;5063580;28;20088;-61
2022/07/07 10:24:07;;;;;;;2.25;0.60;;;;;;;22.50;51.37;102184.94;5063177;28;20029;-61
2022/07/07 10:26:46;;;;;;;1.77;0.60;;;;;;;22.32;51.56;102152.50;5065011;28;20082;-61
2022/07/07 10:29:11;;;;;;;2.40;0.70;;;;;;;22.48;51.72;102181.56;5063044;28;20088;-59
2022/07/07 10:31:38;;;;;;;3.03;0.68;;;;;;;22.48;51.53;102193.25;5063190;28;20045;-60
2022/07/07 10:34:11;;;;;;;1.27;0.43;;;;;;;22.50;51.73;102198.50;5067140;28;20033;-60
2022/07/07 10:36:49;;;;;;;1.67;0.65;;;;;;;22.50;51.54;102202.06;5050908;28;20025;-60
2022/07/07 10:39:25;;;;;;;2.88;0.52;;;;;;;22.48;51.51;102208.66;5068694;28;20021;-60
2022/07/07 10:41:59;;;;;;;2.22;0.60;;;;;;;22.49;51.83;102197.66;5050827;28;20021;-60
2022/07/07 10:44:24;;;;;;;1.40;0.70;;;;;;;22.29;51.65;102175.34;5066358;28;20041;-60
2022/07/07 10:47:03;;;;;;;2.22;0.75;;;;;;;22.41;51.82;102195.75;5068706;28;20032;-60
2022/07/07 10:49:49;;;;;;;1.48;0.52;;;;;;;22.49;52.08;102211.22;5068747;28;20072;-60
2022/07/07 10:52:17;;;;;;;1.88;0.55;;;;;;;22.49;52.00;102216.63;5068858;28;20057;-60
2022/07/07 10:54:50;;;;;;;1.75;0.68;;;;;;;22.50;52.14;102212.06;5066930;28;20311;-60
2022/07/07 10:57:20;;;;;;;1.00;0.43;;;;;;;22.49;52.09;102226.63;5068536;28;20032;-60
2022/07/07 11:00:01;;;;;;;3.15;0.60;;;;;;;22.49;52.21;102226.63;5066231;28;20103;-60
2022/07/07 11:02:38;;;;;;;0.98;0.50;;;;;;;22.49;51.94;102232.03;5068154;28;20172;-60
2022/07/07 11:05:09;;;;;;;1.52;0.50;;;;;;;22.48;52.14;102242.03;5066737;28;20029;-60
2022/07/07 11:07:35;;;;;;;1.83;0.80;;;;;;;22.48;51.84;102241.19;5067926;28;20021;-61
2022/07/07 11:10:11;;;;;;;1.33;0.38;;;;;;;22.45;51.90;102248.63;5066837;28;20096;-60
2022/07/07 11:12:41;;;;;;;1.58;0.60;;;;;;;22.47;51.79;102259.28;5067511;28;20029;-60
2022/07/07 11:15:16;;;;;;;1.55;0.50;;;;;;;22.48;51.72;102263.72;5066036;28;20033;-60
2022/07/07 11:18:01;;;;;;;2.15;0.82;;;;;;;22.45;51.51;102264.03;5067873;28;20029;-60
2022/07/07 11:20:28;;;;;;;2.15;0.70;;;;;;;22.47;51.54;102262.00;5063617;28;20043;-60
2022/07/07 11:22:54;;;;;;;2.28;0.70;;;;;;;22.48;51.62;102266.44;5066743;28;20032;-60
2022/07/07 11:25:21;;;;;;;1.38;0.57;;;;;;;22.49;51.75;102272.69;5067980;28;20033;-60
2022/07/07 11:27:51;;;;;;;2.75;0.80;;;;;;;22.49;51.82;102283.53;5067709;28;20517;-60